Airfield :
LOGIN :

Register | Disclaimer

   EN    FR    IT 

 










Legend :    VFR   Marginal VFR   IFR   Intensive IFR   Very Intensive IFR
Visi :
Ceiling :
>= 8 km
>= 3000ft
5 to 8 km
1000 to 3000 ft
1500m to 5 km
500 to 1000 ft
800 to 1500m
200 to 500 ft
< 800m
< 200 ft
Symbols :   Thunderstorms  Fog  Heavy snow  Heavy precipitations  Wind > 20 kt
SIGMETs :     Misc.  Thunderstorms  Icing  Turbulence  Mountain Waves  Volcanic Ashes






- Airport Elevation : -11 ft
- IATA code : AMS


EHAM - Amsterdam Schiphol

CURRENT METAR :
  • 281355Z 08008KT 040V110 9000 -DZ FEW006 BKN008 BKN010 05/05 Q1000 NOSIG

EXPIRED METARs :
  • 281325Z 07008KT 7000 -DZ FEW004 BKN007 BKN010 05/05 Q1000 NOSIG
  • 281255Z 08007KT 7000 -DZ FEW004 BKN006 OVC022 05/05 Q1000 NOSIG
  • 281225Z 07007KT 030V090 4500 -DZ FEW005 BKN007 OVC020 05/05 Q1000 BECMG 7000
  • 281155Z 07009KT 7000 -RADZ FEW004 BKN006 OVC026 05/05 Q0999 NOSIG
  • 281125Z 08011KT 7000 -RADZ FEW004 BKN006 OVC026 05/05 Q0999 NOSIG

TAF TAF EHAM
Valid from the 28 at 12:00 until the 29 at 18:00 UTC


281115Z 2812/2918 08007KT 9999 BKN007
BECMG 2817/2820 14008KT 7000 -RADZ
PROB40
TEMPO 2820/2905 4000 RADZ BR BKN004
BECMG 2903/2906 26020G30KT 9999 NSW BKN018
BECMG 2906/2909 SCT025
PROB40
TEMPO 2909/2918 7000 -RA -SHRA FEW016TCU BKN018
BECMG 2912/2915 26014KT



MET'MAP, your aeronautical weather chart ! - Copyright ORBIFLY December 2007 - Disclaimer

ORBIFLY MET'MAP TEAM :

Programming & Development : Alexandra Zaïnal
Concept & original design : Baudouin d'Aumeries
Assistance for programming : Marc-Olivier Méhu
Technical & hardware support : Manuel Goepfert

Contact : metmap@orbifly.com




SOURCES & CREDITS :

   NOAA